createdAt,value
2023-07-31T00:01:46.915Z,1.75
2023-07-31T00:03:53.318Z,1.92
2023-07-31T00:05:58.828Z,2.25
2023-07-31T00:08:06.744Z,1.80
2023-07-31T00:10:13.487Z,1.92
2023-07-31T00:12:21.532Z,1.80
2023-07-31T00:14:27.275Z,1.60
2023-07-31T00:16:33.202Z,2.10
2023-07-31T00:18:43.137Z,1.67
2023-07-31T00:20:49.117Z,2.00
2023-07-31T00:22:51.980Z,1.80
2023-07-31T00:24:57.930Z,1.67
2023-07-31T00:27:04.164Z,2.00
2023-07-31T00:29:15.711Z,1.85
2023-07-31T00:31:19.197Z,1.83
2023-07-31T00:33:24.656Z,1.70
2023-07-31T00:35:30.630Z,1.77
2023-07-31T00:37:36.795Z,2.15
2023-07-31T00:39:43.075Z,1.75
2023-07-31T00:41:49.068Z,2.03
2023-07-31T00:43:56.975Z,1.63
2023-07-31T00:46:05.856Z,2.72
2023-07-31T00:48:11.580Z,1.70
2023-07-31T00:50:18.579Z,2.00
2023-07-31T00:52:33.651Z,1.50
2023-07-31T00:54:39.160Z,2.13
2023-07-31T00:56:49.732Z,1.80
2023-07-31T00:59:10.830Z,1.23
2023-07-31T01:01:22.184Z,2.20
2023-07-31T01:03:26.489Z,1.58
2023-07-31T01:05:43.008Z,1.90
2023-07-31T01:08:02.058Z,1.95
2023-07-31T01:10:19.411Z,2.05
2023-07-31T01:12:27.281Z,2.13
2023-07-31T01:14:32.996Z,1.95
2023-07-31T01:16:41.625Z,1.90
2023-07-31T01:18:50.529Z,1.65
2023-07-31T01:21:07.555Z,1.73
2023-07-31T01:23:53.530Z,2.20
2023-07-31T01:26:09.159Z,2.08
2023-07-31T01:28:17.994Z,2.50
2023-07-31T01:30:29.706Z,1.90
2023-07-31T01:32:36.835Z,1.67
2023-07-31T01:34:43.532Z,1.60
2023-07-31T01:36:49.532Z,2.13
2023-07-31T01:38:55.040Z,2.90
2023-07-31T01:41:06.228Z,1.67
2023-07-31T01:43:12.090Z,1.88
2023-07-31T01:45:18.998Z,1.90
2023-07-31T01:47:26.692Z,1.63
2023-07-31T01:49:32.252Z,2.38
2023-07-31T01:51:38.152Z,1.85
2023-07-31T01:53:44.110Z,2.25
2023-07-31T01:55:50.161Z,2.05
2023-07-31T01:57:58.263Z,2.20
2023-07-31T02:00:13.808Z,2.28
2023-07-31T02:02:19.746Z,3.00
2023-07-31T02:04:26.189Z,2.72
2023-07-31T02:06:31.878Z,2.00
2023-07-31T02:08:41.019Z,2.33
2023-07-31T02:10:47.053Z,2.13
2023-07-31T02:12:53.190Z,2.17
2023-07-31T02:15:01.510Z,2.08
2023-07-31T02:17:07.212Z,1.65
2023-07-31T02:19:13.339Z,2.05
2023-07-31T02:21:19.131Z,2.53
2023-07-31T02:23:24.929Z,2.15
2023-07-31T02:25:30.422Z,2.08
2023-07-31T02:27:41.892Z,1.85
2023-07-31T02:31:58.573Z,2.08
2023-07-31T02:34:05.159Z,2.20
2023-07-31T02:36:11.019Z,2.15
2023-07-31T02:38:17.088Z,2.00
2023-07-31T02:40:22.567Z,1.90
2023-07-31T02:42:44.134Z,1.85
2023-07-31T02:44:56.961Z,2.20
2023-07-31T02:47:05.540Z,2.33
2023-07-31T02:49:13.714Z,2.45
2023-07-31T02:51:16.631Z,1.90
2023-07-31T02:53:23.581Z,2.30
2023-07-31T02:55:29.097Z,1.80
2023-07-31T02:57:36.683Z,1.95
2023-07-31T02:59:42.600Z,2.30
2023-07-31T03:01:45.561Z,2.25
2023-07-31T03:03:54.802Z,2.00
2023-07-31T03:06:00.285Z,2.35
2023-07-31T03:08:06.572Z,2.33
2023-07-31T03:10:13.294Z,1.98
2023-07-31T03:12:18.789Z,2.50
2023-07-31T03:14:24.503Z,2.05
2023-07-31T03:16:30.027Z,2.00
2023-07-31T03:18:39.304Z,2.05
2023-07-31T03:20:49.714Z,1.80
2023-07-31T03:22:56.232Z,2.58
2023-07-31T03:25:01.747Z,2.10
2023-07-31T03:27:07.879Z,1.92
2023-07-31T03:29:14.034Z,2.40
2023-07-31T03:31:19.544Z,2.30
2023-07-31T03:33:28.863Z,2.20
2023-07-31T03:35:34.693Z,2.08
2023-07-31T03:37:45.545Z,2.30
2023-07-31T03:39:51.671Z,2.03
2023-07-31T03:41:57.154Z,2.08
2023-07-31T03:44:03.376Z,1.95
2023-07-31T03:48:16.314Z,2.13
2023-07-31T03:50:24.765Z,2.03
2023-07-31T03:52:33.318Z,2.67
2023-07-31T03:54:41.334Z,2.60
2023-07-31T03:56:47.340Z,2.40
2023-07-31T03:58:54.015Z,2.33
2023-07-31T04:01:01.279Z,1.98
2023-07-31T04:03:06.937Z,2.13
2023-07-31T04:05:13.270Z,2.55
2023-07-31T04:07:23.559Z,2.00
2023-07-31T04:09:29.368Z,2.08
2023-07-31T04:11:41.399Z,2.20
2023-07-31T04:13:47.760Z,2.60
2023-07-31T04:15:54.587Z,2.10
2023-07-31T04:18:00.574Z,2.15
2023-07-31T04:20:06.542Z,2.15
2023-07-31T04:22:16.809Z,2.13
2023-07-31T04:24:25.830Z,2.50
2023-07-31T04:26:31.280Z,2.22
2023-07-31T04:28:53.181Z,1.98
2023-07-31T04:31:00.333Z,2.40
2023-07-31T04:33:03.942Z,2.35
2023-07-31T04:35:10.567Z,2.03
2023-07-31T04:37:22.381Z,2.15
2023-07-31T04:39:27.827Z,2.60
2023-07-31T04:41:34.297Z,2.17
2023-07-31T04:43:42.459Z,2.30
2023-07-31T04:45:51.681Z,2.10
2023-07-31T04:47:58.267Z,2.65
2023-07-31T04:50:04.350Z,1.60
2023-07-31T04:52:15.242Z,2.28
2023-07-31T04:54:21.370Z,2.38
2023-07-31T04:56:27.124Z,2.20
2023-07-31T04:58:36.183Z,2.05
2023-07-31T05:00:44.224Z,2.45
2023-07-31T05:02:54.606Z,1.27
2023-07-31T05:05:02.044Z,2.00
2023-07-31T05:07:08.955Z,2.38
2023-07-31T05:09:14.837Z,2.13
2023-07-31T05:11:20.443Z,2.28
2023-07-31T05:13:27.278Z,2.17
2023-07-31T05:15:36.156Z,2.65
2023-07-31T05:17:49.472Z,2.38
2023-07-31T05:19:55.654Z,2.45
2023-07-31T05:22:01.106Z,2.10
2023-07-31T05:24:07.354Z,2.45
2023-07-31T05:26:13.751Z,2.53
2023-07-31T05:28:27.695Z,2.55
2023-07-31T05:30:34.873Z,2.20
2023-07-31T05:32:40.693Z,2.57
2023-07-31T05:34:49.493Z,2.58
2023-07-31T05:36:54.988Z,2.65
2023-07-31T05:39:01.380Z,2.42
2023-07-31T05:41:11.597Z,2.30
2023-07-31T05:43:19.171Z,2.30
2023-07-31T05:45:24.636Z,2.80
2023-07-31T05:47:32.811Z,2.63
2023-07-31T05:49:39.431Z,2.05
2023-07-31T05:51:47.447Z,2.53
2023-07-31T05:53:52.866Z,2.60
2023-07-31T05:55:56.162Z,2.30
2023-07-31T05:58:01.763Z,2.60
2023-07-31T06:00:10.524Z,2.70
2023-07-31T06:02:16.591Z,2.30
2023-07-31T06:04:25.488Z,2.60
2023-07-31T06:06:31.833Z,2.00
2023-07-31T06:08:51.174Z,2.50
2023-07-31T06:10:55.131Z,2.53
2023-07-31T06:13:01.002Z,3.15
2023-07-31T06:15:08.911Z,2.70
2023-07-31T06:17:14.346Z,2.80
2023-07-31T06:19:23.111Z,2.30
2023-07-31T06:21:31.056Z,2.72
2023-07-31T06:23:39.068Z,2.50
2023-07-31T06:25:49.759Z,2.65
2023-07-31T06:27:57.541Z,2.70
2023-07-31T06:30:03.701Z,2.88
2023-07-31T06:32:09.927Z,2.67
2023-07-31T06:34:15.947Z,2.70
2023-07-31T06:36:24.961Z,2.85
2023-07-31T06:38:34.340Z,2.80
2023-07-31T06:40:42.721Z,3.05
2023-07-31T06:42:48.375Z,2.50
2023-07-31T06:44:52.014Z,2.47
2023-07-31T06:46:59.049Z,2.70
2023-07-31T06:49:04.847Z,2.50
2023-07-31T06:51:11.754Z,2.70
2023-07-31T06:53:17.454Z,2.97
2023-07-31T06:55:24.893Z,2.55
2023-07-31T06:59:49.064Z,2.40
2023-07-31T07:01:56.285Z,2.40
2023-07-31T07:04:03.052Z,3.17
2023-07-31T07:06:05.962Z,2.70
2023-07-31T07:08:11.468Z,2.65
2023-07-31T07:10:16.985Z,3.15
2023-07-31T07:12:25.071Z,2.67
2023-07-31T07:14:33.057Z,3.20
2023-07-31T07:16:39.581Z,2.33
2023-07-31T07:18:58.221Z,2.47
2023-07-31T07:21:10.104Z,2.70
2023-07-31T07:23:15.758Z,2.53
2023-07-31T07:25:21.734Z,2.60
2023-07-31T07:27:28.381Z,2.72
2023-07-31T07:29:38.070Z,2.90
2023-07-31T07:31:43.807Z,2.60
2023-07-31T07:33:49.266Z,2.60
2023-07-31T07:35:55.218Z,2.67
2023-07-31T07:38:00.993Z,2.70
2023-07-31T07:40:08.330Z,3.55
2023-07-31T07:44:17.552Z,2.42
2023-07-31T07:46:25.783Z,2.50
2023-07-31T07:48:34.559Z,2.80
2023-07-31T07:50:42.106Z,2.95
2023-07-31T07:52:47.943Z,2.75
2023-07-31T07:54:54.038Z,2.83
2023-07-31T07:57:03.419Z,2.50
2023-07-31T07:59:08.968Z,2.70
2023-07-31T08:01:14.456Z,3.30
2023-07-31T08:03:23.441Z,3.20
2023-07-31T08:05:30.100Z,2.97
2023-07-31T08:07:41.269Z,3.42
2023-07-31T08:09:47.511Z,2.63
2023-07-31T08:11:52.945Z,3.47
2023-07-31T08:13:58.375Z,2.45
2023-07-31T08:16:03.851Z,2.80
2023-07-31T08:18:17.345Z,3.08
2023-07-31T08:20:25.855Z,2.60
2023-07-31T08:22:31.289Z,3.20
2023-07-31T08:24:37.116Z,2.83
2023-07-31T08:26:43.132Z,3.10
2023-07-31T08:28:50.217Z,2.70
2023-07-31T08:30:53.514Z,2.90
2023-07-31T08:32:59.548Z,3.17
2023-07-31T08:35:10.113Z,2.90
2023-07-31T08:37:18.110Z,2.90
2023-07-31T08:39:24.296Z,2.72
2023-07-31T08:41:33.649Z,2.75
2023-07-31T08:43:44.508Z,2.88
2023-07-31T08:45:54.698Z,2.60
2023-07-31T08:48:01.550Z,3.88
2023-07-31T08:50:08.144Z,2.65
2023-07-31T08:52:17.635Z,2.92
2023-07-31T08:54:24.592Z,1.77
2023-07-31T08:56:31.530Z,3.22
2023-07-31T08:58:43.574Z,2.97
2023-07-31T09:00:53.357Z,3.17
2023-07-31T09:03:06.978Z,3.15
2023-07-31T09:05:13.546Z,2.83
2023-07-31T09:07:21.750Z,2.75
2023-07-31T09:09:27.708Z,3.00
2023-07-31T09:11:33.757Z,2.97
2023-07-31T09:13:40.813Z,3.08
2023-07-31T09:15:49.151Z,3.00
2023-07-31T09:18:04.388Z,3.10
2023-07-31T09:20:21.137Z,3.00
2023-07-31T09:22:39.845Z,3.13
2023-07-31T09:24:45.649Z,3.78
2023-07-31T09:26:51.141Z,2.45
2023-07-31T09:29:04.218Z,2.90
2023-07-31T09:31:09.653Z,3.20
2023-07-31T09:33:16.074Z,1.48
2023-07-31T09:35:26.266Z,3.08
2023-07-31T09:37:36.513Z,3.30
2023-07-31T09:40:00.149Z,2.47
2023-07-31T09:42:05.665Z,3.10
2023-07-31T09:44:08.691Z,2.97
2023-07-31T09:46:18.306Z,3.05
2023-07-31T09:48:30.125Z,3.05
2023-07-31T09:50:35.589Z,2.45
2023-07-31T09:52:40.645Z,2.80
2023-07-31T09:54:46.621Z,2.65
2023-07-31T09:56:55.380Z,2.70
2023-07-31T09:59:01.369Z,2.80
2023-07-31T10:01:09.122Z,3.10
2023-07-31T10:03:16.041Z,2.78
2023-07-31T10:05:23.533Z,3.03
2023-07-31T10:07:35.808Z,2.40
2023-07-31T10:09:41.695Z,3.00
2023-07-31T10:11:53.231Z,2.80
2023-07-31T10:14:01.734Z,2.80
2023-07-31T10:16:08.410Z,2.85
2023-07-31T10:18:15.243Z,2.53
2023-07-31T10:20:21.404Z,2.40
2023-07-31T10:22:27.723Z,3.22
2023-07-31T10:24:39.199Z,3.17
2023-07-31T10:26:48.365Z,2.95
2023-07-31T10:28:58.032Z,3.22
2023-07-31T10:31:07.044Z,2.90
2023-07-31T10:33:13.883Z,3.22
2023-07-31T10:35:20.105Z,3.22
2023-07-31T10:37:29.053Z,2.92
2023-07-31T10:39:44.500Z,3.45
2023-07-31T10:41:53.924Z,3.30
2023-07-31T10:44:01.801Z,3.40
2023-07-31T10:46:09.921Z,3.35
2023-07-31T10:48:18.722Z,3.17
2023-07-31T10:50:25.998Z,3.42
2023-07-31T10:52:40.078Z,3.40
2023-07-31T10:54:45.533Z,3.45
2023-07-31T10:56:54.334Z,3.13
2023-07-31T10:59:05.868Z,3.10
2023-07-31T11:01:14.008Z,2.95
2023-07-31T11:03:26.503Z,2.50
2023-07-31T11:05:46.517Z,3.05
2023-07-31T11:07:53.467Z,2.65
2023-07-31T11:09:58.962Z,3.20
2023-07-31T11:12:04.543Z,2.53
2023-07-31T11:14:10.290Z,3.13
2023-07-31T11:16:18.490Z,3.13
2023-07-31T11:18:27.717Z,2.92
2023-07-31T11:20:34.754Z,3.50
2023-07-31T11:22:40.700Z,3.00
2023-07-31T11:24:47.771Z,3.38
2023-07-31T11:26:54.569Z,3.40
2023-07-31T11:29:00.369Z,3.40
2023-07-31T11:31:10.746Z,3.13
2023-07-31T11:33:19.089Z,3.17
2023-07-31T11:35:22.313Z,3.40
2023-07-31T11:37:31.951Z,2.80
2023-07-31T11:39:37.999Z,2.25
2023-07-31T11:41:47.158Z,2.85
2023-07-31T11:43:52.800Z,2.88
2023-07-31T11:45:59.933Z,3.35
2023-07-31T11:48:07.273Z,2.97
2023-07-31T11:52:24.737Z,3.08
2023-07-31T11:54:30.530Z,3.10
2023-07-31T11:56:36.261Z,2.92
2023-07-31T11:58:47.321Z,2.70
2023-07-31T12:00:54.242Z,2.85
2023-07-31T12:02:59.877Z,3.33
2023-07-31T12:05:03.579Z,3.25
2023-07-31T12:07:13.804Z,3.25
2023-07-31T12:09:19.526Z,2.63
2023-07-31T12:11:29.877Z,3.67
2023-07-31T12:13:36.782Z,3.50
2023-07-31T12:15:44.404Z,3.92
2023-07-31T12:17:55.259Z,3.50
2023-07-31T12:20:02.012Z,3.22
2023-07-31T12:22:22.708Z,2.92
2023-07-31T12:24:29.762Z,2.65
2023-07-31T12:26:39.154Z,3.15
2023-07-31T12:28:47.778Z,3.08
2023-07-31T12:30:53.519Z,2.88
2023-07-31T12:32:57.109Z,2.80
2023-07-31T12:35:05.455Z,3.38
2023-07-31T12:37:11.537Z,3.33
2023-07-31T12:39:19.887Z,3.13
2023-07-31T12:41:30.948Z,3.17
2023-07-31T12:43:35.016Z,3.17
2023-07-31T12:45:40.459Z,2.25
2023-07-31T12:47:47.994Z,2.83
2023-07-31T12:49:53.497Z,3.13
2023-07-31T12:51:59.188Z,2.70
2023-07-31T12:54:05.130Z,3.00
2023-07-31T12:56:13.412Z,2.80
2023-07-31T12:58:24.591Z,3.00
2023-07-31T13:00:30.184Z,2.90
2023-07-31T13:02:33.918Z,3.13
2023-07-31T13:04:44.128Z,3.17
2023-07-31T13:06:49.876Z,2.42
2023-07-31T13:08:57.733Z,2.85
2023-07-31T13:11:03.189Z,3.03
2023-07-31T13:13:08.836Z,3.10
2023-07-31T13:15:14.968Z,2.85
2023-07-31T13:17:24.183Z,3.15
2023-07-31T13:19:30.423Z,3.20
2023-07-31T13:21:37.729Z,3.22
2023-07-31T13:23:43.431Z,3.22
2023-07-31T13:25:46.391Z,3.03
2023-07-31T13:27:52.621Z,2.95
2023-07-31T13:30:01.001Z,1.93
2023-07-31T13:32:04.702Z,3.13
2023-07-31T13:34:10.636Z,3.10
2023-07-31T13:36:16.247Z,3.00
2023-07-31T13:38:24.122Z,2.90
2023-07-31T13:40:29.542Z,2.90
2023-07-31T13:42:35.280Z,2.88
2023-07-31T13:44:40.984Z,2.78
2023-07-31T13:46:49.099Z,3.80
2023-07-31T13:48:56.981Z,3.13
2023-07-31T13:51:01.490Z,3.42
2023-07-31T13:53:07.297Z,3.13
2023-07-31T13:55:13.638Z,3.10
2023-07-31T13:57:19.135Z,3.17
2023-07-31T13:59:24.976Z,2.72
2023-07-31T14:01:30.491Z,3.35
2023-07-31T14:03:38.854Z,2.85
2023-07-31T14:05:44.698Z,2.60
2023-07-31T14:07:50.592Z,3.10
2023-07-31T14:10:00.576Z,2.90
2023-07-31T14:12:06.545Z,3.53
2023-07-31T14:14:12.963Z,2.55
2023-07-31T14:16:18.741Z,2.72
2023-07-31T14:18:28.109Z,2.28
2023-07-31T14:20:36.783Z,2.60
2023-07-31T14:22:42.402Z,3.10
2023-07-31T14:24:47.858Z,3.17
2023-07-31T14:26:53.306Z,3.17
2023-07-31T14:28:59.068Z,2.78
2023-07-31T14:31:06.292Z,2.67
2023-07-31T14:33:09.392Z,2.47
2023-07-31T14:35:15.278Z,3.13
2023-07-31T14:37:27.759Z,3.60
2023-07-31T14:39:33.445Z,3.30
2023-07-31T14:41:39.105Z,2.72
2023-07-31T14:43:44.492Z,2.80
2023-07-31T14:45:50.777Z,2.55
2023-07-31T14:47:56.266Z,2.90
2023-07-31T14:50:03.418Z,2.85
2023-07-31T14:52:09.698Z,3.22
2023-07-31T14:54:17.852Z,2.47
2023-07-31T14:56:23.872Z,2.55
2023-07-31T14:58:31.645Z,2.42
2023-07-31T15:00:37.158Z,2.28
2023-07-31T15:02:42.914Z,3.13
2023-07-31T15:04:48.676Z,3.03
2023-07-31T15:06:53.720Z,2.55
2023-07-31T15:08:59.436Z,3.05
2023-07-31T15:11:07.798Z,3.13
2023-07-31T15:13:13.978Z,3.10
2023-07-31T15:15:20.502Z,2.80
2023-07-31T15:17:27.720Z,2.83
2023-07-31T15:19:36.119Z,2.70
2023-07-31T15:21:42.704Z,2.72
2023-07-31T15:23:48.655Z,3.22
2023-07-31T15:25:54.117Z,3.33
2023-07-31T15:28:02.423Z,2.90
2023-07-31T15:30:08.991Z,3.10
2023-07-31T15:32:17.746Z,2.83
2023-07-31T15:34:23.243Z,2.97
2023-07-31T15:36:28.680Z,3.00
2023-07-31T15:38:36.321Z,5.68
2023-07-31T15:40:43.538Z,3.10
2023-07-31T15:44:55.128Z,3.47
2023-07-31T15:47:00.568Z,3.65
2023-07-31T15:49:06.547Z,3.22
2023-07-31T15:51:12.796Z,3.08
2023-07-31T15:53:18.244Z,3.35
2023-07-31T15:55:26.266Z,2.65
2023-07-31T15:57:32.671Z,4.47
2023-07-31T15:59:38.668Z,3.58
2023-07-31T16:01:46.876Z,2.97
2023-07-31T16:03:53.814Z,2.75
2023-07-31T16:05:59.381Z,2.33
2023-07-31T16:08:04.860Z,3.00
2023-07-31T16:10:12.704Z,3.13
2023-07-31T16:14:23.749Z,3.05
2023-07-31T16:16:29.524Z,3.22
2023-07-31T16:18:38.115Z,2.83
2023-07-31T16:20:43.700Z,2.72
2023-07-31T16:22:49.192Z,2.63
2023-07-31T16:24:55.615Z,2.63
2023-07-31T16:27:01.057Z,2.40
2023-07-31T16:29:06.748Z,1.83
2023-07-31T16:31:15.311Z,2.38
2023-07-31T16:33:18.356Z,2.47
2023-07-31T16:35:27.484Z,3.13
2023-07-31T16:37:39.673Z,2.50
2023-07-31T16:39:48.299Z,2.50
2023-07-31T16:41:54.267Z,2.95
2023-07-31T16:43:57.366Z,2.70
2023-07-31T16:46:03.135Z,3.00
2023-07-31T16:48:09.091Z,2.85
2023-07-31T16:50:15.747Z,2.42
2023-07-31T16:52:23.731Z,2.90
2023-07-31T16:54:29.194Z,2.60
2023-07-31T16:56:48.588Z,2.42
2023-07-31T16:59:02.876Z,2.47
2023-07-31T17:03:14.016Z,3.00
2023-07-31T17:05:20.375Z,2.92
2023-07-31T17:07:30.026Z,2.75
2023-07-31T17:09:35.703Z,2.90
2023-07-31T17:11:41.965Z,2.92
2023-07-31T17:13:47.647Z,2.30
2023-07-31T17:15:54.044Z,3.13
2023-07-31T17:17:59.507Z,2.63
2023-07-31T17:20:06.872Z,2.97
2023-07-31T17:24:20.703Z,3.03
2023-07-31T17:26:27.281Z,2.90
2023-07-31T17:28:34.622Z,3.22
2023-07-31T17:30:40.423Z,3.22
2023-07-31T17:32:46.366Z,2.83
2023-07-31T17:34:52.011Z,2.72
2023-07-31T17:36:58.895Z,2.78
2023-07-31T17:39:04.641Z,2.83
2023-07-31T17:41:16.227Z,3.08
2023-07-31T17:43:21.687Z,2.40
2023-07-31T17:45:27.173Z,2.58
2023-07-31T17:47:34.533Z,3.05
2023-07-31T17:49:37.481Z,2.42
2023-07-31T17:51:43.634Z,2.67
2023-07-31T17:53:49.091Z,1.90
2023-07-31T17:55:54.801Z,2.42
2023-07-31T17:58:04.884Z,2.33
2023-07-31T18:00:09.625Z,2.55
2023-07-31T18:02:16.025Z,2.30
2023-07-31T18:04:21.538Z,2.70
2023-07-31T18:06:35.491Z,2.42
2023-07-31T18:08:45.050Z,1.90
2023-07-31T18:10:51.528Z,2.20
2023-07-31T18:12:58.600Z,2.47
2023-07-31T18:15:06.859Z,2.07
2023-07-31T18:17:12.882Z,2.10
2023-07-31T18:19:18.296Z,2.20
2023-07-31T18:21:24.572Z,2.60
2023-07-31T18:23:30.705Z,2.35
2023-07-31T18:25:36.153Z,2.08
2023-07-31T18:27:42.954Z,2.40
2023-07-31T18:29:48.656Z,2.33
2023-07-31T18:31:57.160Z,2.42
2023-07-31T18:34:02.641Z,2.53
2023-07-31T18:36:08.921Z,2.00
2023-07-31T18:38:14.614Z,2.33
2023-07-31T18:40:20.157Z,2.80
2023-07-31T18:42:25.935Z,2.20
2023-07-31T18:44:31.409Z,2.55
2023-07-31T18:46:37.932Z,2.35
2023-07-31T18:48:48.766Z,2.28
2023-07-31T18:50:55.564Z,1.77
2023-07-31T18:57:15.133Z,2.28
2023-07-31T18:59:20.542Z,2.33
2023-07-31T19:01:30.542Z,1.88
2023-07-31T19:03:36.463Z,2.17
2023-07-31T19:05:46.399Z,1.85
2023-07-31T19:08:05.946Z,2.40
2023-07-31T19:12:20.170Z,1.50
2023-07-31T19:14:26.993Z,2.10
2023-07-31T19:16:32.978Z,1.70
2023-07-31T19:18:42.280Z,2.72
2023-07-31T19:20:50.756Z,1.70
2023-07-31T19:22:56.189Z,2.55
2023-07-31T19:25:02.242Z,2.17
2023-07-31T19:27:08.723Z,2.63
2023-07-31T19:29:14.795Z,2.92
2023-07-31T19:31:19.663Z,2.60
2023-07-31T19:33:25.296Z,2.42
2023-07-31T19:35:31.832Z,2.95
2023-07-31T19:37:43.682Z,2.47
2023-07-31T19:39:49.517Z,2.90
2023-07-31T19:41:54.944Z,3.35
2023-07-31T19:44:00.951Z,3.50
2023-07-31T19:46:06.969Z,3.22
2023-07-31T19:48:12.982Z,2.90
2023-07-31T19:50:24.683Z,3.15
2023-07-31T19:52:30.366Z,3.25
2023-07-31T19:54:38.865Z,3.70
2023-07-31T19:56:44.587Z,3.47
2023-07-31T19:58:56.854Z,3.80
2023-07-31T20:01:02.797Z,3.17
2023-07-31T20:03:09.065Z,3.50
2023-07-31T20:05:15.040Z,4.07
2023-07-31T20:07:21.914Z,4.00
2023-07-31T20:09:27.619Z,4.40
2023-07-31T20:11:36.608Z,4.05
2023-07-31T20:13:42.049Z,4.13
2023-07-31T20:15:49.046Z,3.88
2023-07-31T20:17:54.760Z,4.60
2023-07-31T20:20:02.440Z,4.20
2023-07-31T20:24:14.431Z,3.67
2023-07-31T20:26:21.315Z,4.10
2023-07-31T20:28:36.602Z,4.10
2023-07-31T20:30:42.220Z,3.85
2023-07-31T20:32:48.349Z,4.68
2023-07-31T20:34:53.851Z,3.63
2023-07-31T20:37:00.095Z,4.32
2023-07-31T20:39:06.508Z,4.38
2023-07-31T20:41:15.260Z,4.50
2023-07-31T20:43:19.597Z,4.55
2023-07-31T20:45:31.663Z,4.10
2023-07-31T20:47:40.134Z,4.35
2023-07-31T20:49:45.589Z,4.28
2023-07-31T20:51:51.641Z,4.90
2023-07-31T20:53:54.690Z,4.78
2023-07-31T20:56:00.793Z,4.55
2023-07-31T20:58:12.807Z,4.57
2023-07-31T21:00:18.385Z,4.40
2023-07-31T21:02:27.026Z,4.95
2023-07-31T21:04:33.198Z,4.25
2023-07-31T21:06:40.173Z,4.40
2023-07-31T21:08:52.578Z,4.60
2023-07-31T21:10:58.415Z,4.45
2023-07-31T21:13:04.128Z,4.32
2023-07-31T21:15:11.196Z,4.43
2023-07-31T21:19:25.906Z,4.45
2023-07-31T21:21:32.021Z,4.63
2023-07-31T21:23:46.683Z,4.63
2023-07-31T21:25:49.650Z,4.75
2023-07-31T21:28:09.354Z,3.90
2023-07-31T21:30:15.484Z,4.72
2023-07-31T21:32:20.985Z,4.22
2023-07-31T21:34:32.626Z,3.13
2023-07-31T21:36:38.409Z,4.10
2023-07-31T21:38:50.080Z,4.45
2023-07-31T21:40:56.249Z,3.80
2023-07-31T21:43:02.402Z,4.18
2023-07-31T21:45:10.255Z,3.72
2023-07-31T21:49:22.056Z,3.83
2023-07-31T21:51:42.350Z,4.32
2023-07-31T21:53:49.233Z,4.05
2023-07-31T21:55:55.961Z,4.63
2023-07-31T21:58:01.689Z,4.53
2023-07-31T22:00:06.870Z,4.22
2023-07-31T22:04:28.934Z,4.15
2023-07-31T22:06:37.464Z,4.05
2023-07-31T22:08:51.491Z,4.20
2023-07-31T22:10:58.225Z,4.63
2023-07-31T22:13:03.692Z,3.50
2023-07-31T22:15:10.875Z,3.88
2023-07-31T22:17:22.855Z,3.95
2023-07-31T22:19:28.730Z,3.72
2023-07-31T22:21:38.688Z,3.67
2023-07-31T22:23:44.697Z,3.60
2023-07-31T22:25:51.172Z,3.83
2023-07-31T22:28:10.922Z,3.22
2023-07-31T22:30:26.782Z,3.20
2023-07-31T22:32:33.009Z,3.50
2023-07-31T22:34:38.829Z,3.13
2023-07-31T22:36:47.469Z,3.40
2023-07-31T22:38:53.474Z,3.17
2023-07-31T22:41:02.292Z,3.83
2023-07-31T22:43:07.778Z,3.63
2023-07-31T22:45:14.400Z,3.45
2023-07-31T22:47:19.948Z,3.72
2023-07-31T22:49:25.802Z,3.47
2023-07-31T22:51:29.268Z,4.00
2023-07-31T22:53:42.853Z,4.25
2023-07-31T22:55:49.037Z,4.00
2023-07-31T22:57:59.090Z,3.80
2023-07-31T23:00:02.406Z,4.03
2023-07-31T23:02:10.105Z,3.50
2023-07-31T23:06:22.095Z,3.80
2023-07-31T23:08:31.273Z,4.45
2023-07-31T23:10:40.581Z,4.18
2023-07-31T23:12:46.699Z,4.05
2023-07-31T23:14:55.994Z,4.10
2023-07-31T23:17:01.448Z,3.90
2023-07-31T23:19:07.320Z,4.15
2023-07-31T23:21:13.407Z,4.18
2023-07-31T23:23:26.866Z,3.95
2023-07-31T23:25:32.332Z,4.20
2023-07-31T23:27:56.995Z,3.90
2023-07-31T23:30:03.752Z,4.47
2023-07-31T23:32:10.085Z,3.85
2023-07-31T23:34:16.054Z,3.78
2023-07-31T23:36:21.876Z,4.53
2023-07-31T23:38:32.315Z,4.20
2023-07-31T23:40:38.029Z,4.32
2023-07-31T23:42:46.615Z,4.13
2023-07-31T23:45:05.009Z,4.35
2023-07-31T23:47:15.918Z,4.30
2023-07-31T23:49:21.825Z,4.10
2023-07-31T23:51:27.940Z,3.80
2023-07-31T23:53:33.781Z,4.30
2023-07-31T23:55:47.585Z,2.58
2023-07-31T23:58:00.248Z,4.20
